Time;durP1;ratioP1;P1;durP2;ratioP2;P2;SDS_P1;SDS_P2;PMS_P1;PMS_P2;Temp;Humidity;BMP_temperature;BMP_pressure;BME280_temperature;BME280_humidity;BME280_pressure;Samples;Min_cycle;Max_cycle;Signal;HPM_P1;HPM_P2
2022/09/16 00:01:20;;;;;;;2.40;2.30;;;24.70;67.70;;;;;;5074281;28;20796;-77
2022/09/16 00:03:48;;;;;;;2.00;1.90;;;24.70;67.80;;;;;;5074310;28;20958;-77
2022/09/16 00:06:21;;;;;;;1.90;1.80;;;24.70;67.70;;;;;;5074262;28;20432;-77
2022/09/16 00:08:50;;;;;;;2.23;2.13;;;24.70;67.80;;;;;;5055820;28;20457;-77
2022/09/16 00:11:20;;;;;;;4.93;2.47;;;24.70;67.80;;;;;;5074245;28;20477;-77
2022/09/16 00:13:48;;;;;;;2.57;2.37;;;24.70;67.80;;;;;;5074582;28;20443;-77
2022/09/16 00:16:20;;;;;;;2.03;1.93;;;24.60;67.80;;;;;;5051157;28;20538;-77
2022/09/16 00:18:49;;;;;;;2.57;2.37;;;24.60;67.70;;;;;;5062595;28;21186;-77
2022/09/16 00:21:17;;;;;;;2.27;2.17;;;24.60;67.70;;;;;;5067974;28;20990;-77
2022/09/16 00:23:45;;;;;;;2.40;2.30;;;24.60;67.70;;;;;;5065483;28;20459;-77
2022/09/16 00:26:14;;;;;;;2.37;2.17;;;24.60;67.70;;;;;;5073272;28;20795;-78
2022/09/16 00:28:43;;;;;;;2.90;2.70;;;24.60;67.80;;;;;;5072917;28;20443;-77
2022/09/16 00:31:11;;;;;;;2.87;2.57;;;24.60;67.80;;;;;;5073529;28;20437;-77
2022/09/16 00:33:40;;;;;;;2.53;2.40;;;24.60;67.70;;;;;;5073988;28;20507;-77
2022/09/16 00:36:10;;;;;;;2.47;2.10;;;24.60;67.70;;;;;;5073874;28;20459;-78
2022/09/16 00:38:38;;;;;;;1.93;1.83;;;24.60;67.70;;;;;;5073489;28;20840;-77
2022/09/16 00:41:06;;;;;;;2.50;2.30;;;24.60;67.70;;;;;;5074054;28;20458;-77
2022/09/16 00:43:51;;;;;;;1.90;1.80;;;24.60;67.70;;;;;;5070989;28;20462;-77
2022/09/16 00:46:23;;;;;;;2.37;2.27;;;24.60;67.70;;;;;;5053987;28;20832;-78
2022/09/16 00:48:51;;;;;;;2.43;2.10;;;24.60;67.70;;;;;;5057526;28;20440;-77
2022/09/16 00:51:20;;;;;;;2.30;2.00;;;24.60;67.70;;;;;;5073071;28;20464;-78
2022/09/16 00:53:55;;;;;;;1.93;1.80;;;24.60;67.70;;;;;;5074006;28;20446;-77
2022/09/16 00:56:26;;;;;;;2.10;1.90;;;24.60;67.70;;;;;;5073676;28;20899;-77
2022/09/16 00:59:02;;;;;;;1.80;1.70;;;24.60;67.70;;;;;;5073148;28;20846;-77
2022/09/16 01:01:31;;;;;;;2.63;2.43;;;24.60;67.70;;;;;;5073390;28;20469;-77
2022/09/16 01:04:03;;;;;;;2.07;1.97;;;24.60;67.70;;;;;;5073668;28;20749;-77
2022/09/16 01:06:35;;;;;;;3.80;1.80;;;24.60;67.70;;;;;;5072492;28;20915;-77
2022/09/16 01:09:04;;;;;;;2.17;2.07;;;24.60;67.70;;;;;;5073568;28;20764;-77
2022/09/16 01:11:32;;;;;;;2.30;2.20;;;24.60;67.70;;;;;;5073648;28;20469;-77
2022/09/16 01:16:57;;;;;;;2.13;2.03;;;24.50;67.70;;;;;;5068495;28;20463;-77
2022/09/16 01:19:55;;;;;;;2.20;2.10;;;24.50;67.70;;;;;;5064140;28;20543;-77
2022/09/16 01:22:42;;;;;;;2.40;2.30;;;24.50;67.70;;;;;;5072090;28;20463;-77
2022/09/16 01:25:27;;;;;;;1.93;1.83;;;24.50;67.70;;;;;;5053282;28;20439;-77
2022/09/16 01:28:20;;;;;;;2.30;2.10;;;24.50;67.70;;;;;;5058163;28;20445;-77
2022/09/16 01:31:06;;;;;;;3.10;2.90;;;24.50;67.70;;;;;;5072974;28;20556;-77
2022/09/16 01:33:46;;;;;;;2.43;2.23;;;24.50;67.60;;;;;;5073050;28;20758;-77
2022/09/16 01:36:30;;;;;;;2.70;2.50;;;24.50;67.80;;;;;;5070658;28;20445;-77
2022/09/16 01:39:08;;;;;;;3.03;2.83;;;24.50;67.80;;;;;;5068053;28;20475;-77
2022/09/16 01:41:47;;;;;;;2.43;2.23;;;24.40;67.50;;;;;;5073101;28;20456;-76
2022/09/16 01:44:24;;;;;;;2.00;1.90;;;24.40;67.80;;;;;;5066955;28;20455;-77
2022/09/16 01:47:02;;;;;;;1.87;1.77;;;24.40;67.90;;;;;;5071593;28;20450;-76
2022/09/16 01:49:39;;;;;;;1.80;1.70;;;24.40;67.90;;;;;;5072784;28;20433;-76
2022/09/16 01:52:19;;;;;;;1.73;1.63;;;24.40;67.80;;;;;;5071200;28;20463;-76
2022/09/16 01:54:52;;;;;;;1.80;1.70;;;24.50;67.80;;;;;;5072516;28;20519;-76
2022/09/16 01:57:25;;;;;;;2.33;2.20;;;24.40;67.80;;;;;;5072334;28;20449;-77
2022/09/16 01:59:59;;;;;;;2.10;1.87;;;24.40;67.80;;;;;;5073104;28;20482;-76
2022/09/16 02:02:36;;;;;;;2.00;1.90;;;24.40;67.80;;;;;;5072122;28;21230;-77
2022/09/16 02:05:09;;;;;;;2.03;1.93;;;24.40;67.80;;;;;;5072776;28;20519;-76
2022/09/16 02:07:43;;;;;;;2.50;2.00;;;24.40;67.80;;;;;;5071186;28;20466;-76
2022/09/16 02:10:18;;;;;;;2.23;2.10;;;24.40;67.80;;;;;;5072659;28;20506;-77
2022/09/16 02:12:49;;;;;;;1.80;1.70;;;24.40;67.80;;;;;;5072661;28;20525;-77
2022/09/16 02:15:22;;;;;;;2.43;2.23;;;24.40;67.80;;;;;;5072293;28;20475;-77
2022/09/16 02:17:57;;;;;;;2.00;1.90;;;24.40;67.80;;;;;;5071503;28;20433;-77
2022/09/16 02:20:29;;;;;;;2.23;2.07;;;24.40;67.80;;;;;;5055494;28;20441;-77
2022/09/16 02:23:00;;;;;;;2.20;2.10;;;24.40;67.80;;;;;;5069922;28;20469;-77
2022/09/16 02:25:33;;;;;;;2.00;1.90;;;24.40;67.80;;;;;;5072026;28;20438;-77
2022/09/16 02:28:05;;;;;;;1.97;1.87;;;24.40;67.80;;;;;;5057615;28;20436;-77
2022/09/16 02:30:35;;;;;;;2.20;2.00;;;24.40;67.80;;;;;;5058114;28;20459;-76
2022/09/16 02:33:08;;;;;;;2.20;2.10;;;24.40;67.80;;;;;;5071765;28;20954;-77
2022/09/16 02:35:39;;;;;;;1.67;1.57;;;24.40;67.80;;;;;;5072018;28;20893;-76
2022/09/16 02:38:13;;;;;;;2.30;2.10;;;24.40;67.80;;;;;;5071428;28;20926;-77
2022/09/16 02:40:47;;;;;;;2.27;2.10;;;24.40;67.80;;;;;;5071475;28;20444;-77
2022/09/16 02:43:16;;;;;;;2.20;2.10;;;24.40;67.80;;;;;;5071480;28;20960;-77
2022/09/16 02:45:49;;;;;;;2.03;1.93;;;24.40;67.80;;;;;;5064504;28;20521;-77
2022/09/16 02:48:27;;;;;;;2.50;2.30;;;24.40;67.80;;;;;;5070527;28;20440;-77
2022/09/16 02:51:03;;;;;;;2.50;2.30;;;24.40;67.80;;;;;;5075905;28;21247;-76
2022/09/16 02:53:42;;;;;;;3.10;2.90;;;24.40;67.80;;;;;;5059047;28;20755;-77
2022/09/16 02:56:18;;;;;;;2.53;2.37;;;24.40;67.80;;;;;;5078421;28;20432;-77
2022/09/16 02:58:46;;;;;;;2.57;2.43;;;24.40;67.80;;;;;;5078206;28;20889;-77
2022/09/16 03:01:14;;;;;;;2.40;2.20;;;24.40;67.80;;;;;;5072142;28;20453;-77
2022/09/16 03:03:44;;;;;;;2.53;2.33;;;24.40;67.80;;;;;;5069433;28;20462;-77
2022/09/16 03:06:21;;;;;;;2.87;2.63;;;24.40;67.80;;;;;;5078655;28;20423;-77
2022/09/16 03:08:50;;;;;;;2.80;2.50;;;24.30;67.80;;;;;;5077717;28;20456;-77
2022/09/16 03:11:28;;;;;;;2.67;2.47;;;24.40;67.80;;;;;;5078363;28;20467;-77
2022/09/16 03:14:15;;;;;;;2.53;2.33;;;24.40;67.80;;;;;;5078103;28;20507;-76
2022/09/16 03:16:52;;;;;;;2.60;2.40;;;24.30;67.80;;;;;;5059599;28;20541;-77
2022/09/16 03:19:31;;;;;;;2.70;2.50;;;24.30;67.70;;;;;;5066057;28;20450;-77
2022/09/16 03:22:06;;;;;;;2.13;2.03;;;24.30;67.70;;;;;;5078156;28;20451;-76
2022/09/16 03:24:45;;;;;;;2.40;2.20;;;24.30;67.70;;;;;;5065163;28;20940;-77
2022/09/16 03:27:18;;;;;;;3.10;2.90;;;24.30;67.70;;;;;;5077887;28;20430;-77
2022/09/16 03:29:51;;;;;;;2.90;2.70;;;24.30;67.70;;;;;;5078455;28;20423;-77
2022/09/16 03:32:22;;;;;;;2.83;2.63;;;24.30;67.70;;;;;;5077697;28;20451;-77
2022/09/16 03:34:55;;;;;;;2.30;2.10;;;24.30;67.70;;;;;;5057885;28;20946;-77
2022/09/16 03:37:27;;;;;;;2.80;2.60;;;24.30;67.70;;;;;;5063423;28;20783;-77
2022/09/16 03:39:59;;;;;;;2.60;2.50;;;24.30;67.70;;;;;;5063041;28;20445;-77
2022/09/16 03:42:27;;;;;;;2.33;2.17;;;24.30;67.70;;;;;;5057486;28;20884;-77
2022/09/16 03:44:56;;;;;;;2.80;2.60;;;24.30;67.70;;;;;;5066479;28;20475;-77
2022/09/16 03:47:24;;;;;;;2.30;2.20;;;24.30;67.70;;;;;;5076219;28;20467;-76
2022/09/16 03:49:53;;;;;;;2.83;2.50;;;24.30;67.70;;;;;;5077659;28;20435;-77
2022/09/16 03:52:21;;;;;;;2.50;2.30;;;24.30;67.70;;;;;;5076984;28;20454;-76
2022/09/16 03:54:50;;;;;;;2.57;2.37;;;24.30;67.70;;;;;;5057784;28;20769;-77
2022/09/16 03:57:18;;;;;;;2.20;2.10;;;24.30;67.70;;;;;;5057504;28;20442;-77
2022/09/16 03:59:46;;;;;;;2.03;1.93;;;24.30;67.70;;;;;;5069570;28;20439;-77
2022/09/16 04:02:14;;;;;;;2.03;1.93;;;24.30;67.70;;;;;;5060924;28;20468;-77
2022/09/16 04:04:42;;;;;;;2.57;2.37;;;24.30;67.70;;;;;;5074532;28;20492;-77
2022/09/16 04:07:11;;;;;;;2.30;2.10;;;24.30;67.70;;;;;;5074500;28;20433;-76
2022/09/16 04:09:40;;;;;;;2.20;2.10;;;24.30;67.70;;;;;;5074087;28;20930;-76
2022/09/16 04:12:08;;;;;;;2.30;2.10;;;24.30;67.70;;;;;;5074263;28;20498;-76
2022/09/16 04:14:36;;;;;;;2.00;1.90;;;24.20;67.70;;;;;;5074574;28;20452;-76
2022/09/16 04:17:04;;;;;;;2.63;2.33;;;24.30;67.70;;;;;;5071940;28;20462;-77
2022/09/16 04:19:33;;;;;;;2.67;2.47;;;24.30;67.70;;;;;;5069773;28;20450;-76
2022/09/16 04:22:01;;;;;;;2.73;2.53;;;24.20;67.60;;;;;;5069097;28;20467;-77
2022/09/16 04:24:30;;;;;;;2.50;2.30;;;24.30;67.60;;;;;;5071303;28;20473;-77
2022/09/16 04:26:58;;;;;;;2.20;2.10;;;24.30;67.70;;;;;;5069922;28;20471;-76
2022/09/16 04:29:26;;;;;;;2.17;2.03;;;24.20;67.60;;;;;;5071680;28;20447;-74
2022/09/16 04:31:54;;;;;;;2.70;2.13;;;24.20;67.70;;;;;;5069898;28;20548;-74
2022/09/16 04:34:23;;;;;;;2.67;2.50;;;24.20;67.60;;;;;;5073178;28;20938;-74
2022/09/16 04:36:52;;;;;;;2.57;2.37;;;24.20;67.60;;;;;;5071313;28;20553;-74
2022/09/16 04:39:21;;;;;;;3.00;2.87;;;24.20;67.60;;;;;;5072845;28;20759;-74
2022/09/16 04:41:50;;;;;;;3.87;3.67;;;24.20;67.30;;;;;;5071736;28;20935;-73
2022/09/16 04:44:18;;;;;;;3.40;3.10;;;24.20;67.00;;;;;;5070539;28;20471;-73
2022/09/16 04:46:46;;;;;;;4.17;3.77;;;24.20;67.10;;;;;;5059640;28;20467;-73
2022/09/16 04:49:14;;;;;;;4.90;4.50;;;24.20;66.70;;;;;;5070538;28;20457;-73
2022/09/16 04:51:43;;;;;;;3.40;3.07;;;24.10;66.60;;;;;;5068492;28;20946;-73
2022/09/16 04:54:11;;;;;;;5.07;4.67;;;24.10;66.60;;;;;;5067027;28;20455;-73
2022/09/16 04:56:39;;;;;;;5.03;4.37;;;24.00;66.60;;;;;;5073837;28;20443;-72
2022/09/16 04:59:10;;;;;;;5.80;4.50;;;24.00;66.60;;;;;;5072665;28;20436;-74
2022/09/16 05:01:40;;;;;;;5.90;5.50;;;24.00;66.70;;;;;;5067275;28;20465;-74
2022/09/16 05:04:10;;;;;;;7.33;6.20;;;24.00;66.70;;;;;;5073233;28;20467;-74
2022/09/16 05:06:40;;;;;;;8.60;7.80;;;23.90;66.60;;;;;;5055407;28;20958;-74
2022/09/16 05:09:10;;;;;;;6.90;6.30;;;23.90;66.70;;;;;;5072032;28;20459;-74
2022/09/16 05:11:39;;;;;;;4.90;4.37;;;23.90;66.80;;;;;;5073246;28;20575;-74
2022/09/16 05:14:13;;;;;;;5.70;5.30;;;23.90;66.90;;;;;;5071795;28;20451;-74
2022/09/16 05:16:42;;;;;;;4.73;4.33;;;23.90;66.90;;;;;;5072974;28;20947;-74
2022/09/16 05:19:11;;;;;;;2.77;2.57;;;23.90;66.90;;;;;;5066865;28;20454;-74
2022/09/16 05:21:40;;;;;;;4.67;3.57;;;23.90;67.10;;;;;;5067547;28;20941;-73
2022/09/16 05:24:10;;;;;;;3.87;3.50;;;23.90;67.20;;;;;;5072109;28;20469;-74
2022/09/16 05:26:40;;;;;;;5.37;4.90;;;23.90;66.90;;;;;;5072661;28;20445;-73
2022/09/16 05:29:14;;;;;;;6.10;5.03;;;23.90;66.70;;;;;;5052802;28;20453;-73
2022/09/16 05:31:46;;;;;;;4.73;4.33;;;23.90;66.60;;;;;;5052809;28;20423;-73
2022/09/16 05:34:15;;;;;;;8.60;5.73;;;23.80;66.60;;;;;;5065859;28;20454;-74
2022/09/16 05:36:46;;;;;;;5.30;4.40;;;23.90;66.60;;;;;;5068996;28;20440;-74
2022/09/16 05:39:16;;;;;;;5.70;4.50;;;23.80;66.50;;;;;;5065305;28;20550;-73
2022/09/16 05:41:53;;;;;;;5.73;4.97;;;23.80;66.60;;;;;;5060473;28;20450;-73
2022/09/16 05:44:23;;;;;;;5.90;5.40;;;23.80;66.60;;;;;;5066698;28;20467;-72
2022/09/16 05:46:51;;;;;;;5.40;5.00;;;23.80;66.60;;;;;;5065217;28;20454;-73
2022/09/16 05:49:20;;;;;;;5.30;4.37;;;23.80;66.50;;;;;;5069238;28;20457;-72
2022/09/16 05:51:49;;;;;;;4.87;4.47;;;23.80;66.40;;;;;;5061873;28;20454;-73
2022/09/16 05:54:18;;;;;;;5.73;5.23;;;23.80;66.50;;;;;;5069469;28;20509;-74
2022/09/16 05:56:47;;;;;;;3.30;3.10;;;23.80;66.60;;;;;;5066355;28;20469;-73
2022/09/16 05:59:16;;;;;;;3.83;3.00;;;23.80;66.70;;;;;;5065838;28;20479;-73
2022/09/16 06:01:46;;;;;;;3.80;3.37;;;23.90;66.80;;;;;;5069180;28;20440;-73
2022/09/16 06:04:15;;;;;;;3.20;2.90;;;23.90;66.80;;;;;;5066579;28;20475;-72
2022/09/16 06:06:45;;;;;;;5.50;3.20;;;23.90;66.80;;;;;;5052446;28;20525;-72
2022/09/16 06:09:16;;;;;;;3.47;3.17;;;24.00;66.90;;;;;;5058921;28;20534;-73
2022/09/16 06:11:45;;;;;;;6.40;3.80;;;24.00;66.90;;;;;;5052566;28;20483;-73
2022/09/16 06:14:15;;;;;;;3.83;3.50;;;24.00;66.90;;;;;;5059192;28;20459;-73
2022/09/16 06:16:43;;;;;;;3.93;3.57;;;24.10;66.90;;;;;;5065282;28;20788;-73
2022/09/16 06:19:14;;;;;;;8.20;4.37;;;24.10;66.90;;;;;;5068799;28;20481;-73
2022/09/16 06:21:43;;;;;;;4.87;4.07;;;24.10;66.90;;;;;;5060537;28;20446;-73
2022/09/16 06:24:12;;;;;;;4.97;4.00;;;24.10;66.90;;;;;;5069412;28;20472;-73
2022/09/16 06:26:42;;;;;;;6.50;4.83;;;24.10;66.90;;;;;;5071017;28;20451;-73
2022/09/16 06:29:11;;;;;;;4.83;4.30;;;24.10;66.90;;;;;;5066371;28;20442;-73
2022/09/16 06:31:39;;;;;;;4.30;3.70;;;24.10;66.90;;;;;;5065736;28;20444;-73
2022/09/16 06:34:12;;;;;;;6.03;3.70;;;24.10;66.90;;;;;;5071439;28;20448;-72
2022/09/16 06:36:41;;;;;;;6.40;4.23;;;24.10;66.90;;;;;;5055632;28;20440;-73
2022/09/16 06:39:13;;;;;;;6.73;3.93;;;24.10;66.90;;;;;;5050241;28;20898;-71
2022/09/16 06:41:41;;;;;;;6.03;4.30;;;24.10;66.90;;;;;;5059835;28;20451;-71
2022/09/16 06:44:10;;;;;;;7.30;4.73;;;24.10;67.50;;;;;;5066967;28;20473;-71
2022/09/16 06:46:38;;;;;;;9.63;4.50;;;24.10;68.00;;;;;;5068609;28;21007;-71
2022/09/16 06:49:06;;;;;;;4.53;4.10;;;24.20;68.40;;;;;;5068830;28;20431;-72
2022/09/16 06:51:35;;;;;;;5.13;3.70;;;24.20;68.40;;;;;;5056730;28;20451;-71
2022/09/16 06:54:07;;;;;;;6.23;4.40;;;24.20;68.30;;;;;;5063466;28;20954;-71
2022/09/16 06:56:37;;;;;;;8.93;4.30;;;24.20;68.20;;;;;;5069315;28;20699;-71
2022/09/16 06:59:06;;;;;;;4.60;4.20;;;24.20;68.10;;;;;;5068337;28;20927;-71
2022/09/16 07:01:34;;;;;;;6.77;4.30;;;24.20;68.00;;;;;;5071688;28;20456;-72
2022/09/16 07:04:05;;;;;;;4.07;3.77;;;24.30;67.80;;;;;;5063534;28;20440;-71
2022/09/16 07:06:33;;;;;;;6.03;3.93;;;24.30;67.70;;;;;;5065493;28;20454;-73
2022/09/16 07:09:23;;;;;;;4.63;3.50;;;24.30;67.60;;;;;;5063940;28;20464;-73
2022/09/16 07:11:51;;;;;;;4.13;3.50;;;24.30;67.50;;;;;;5060847;28;20969;-71
2022/09/16 07:14:19;;;;;;;3.37;3.07;;;24.30;67.50;;;;;;5065877;28;20456;-71
2022/09/16 07:16:47;;;;;;;5.57;3.90;;;24.40;67.40;;;;;;5070192;28;20912;-71
2022/09/16 07:19:16;;;;;;;4.40;3.93;;;24.40;67.40;;;;;;5062430;28;20455;-80
2022/09/16 07:21:44;;;;;;;4.00;3.43;;;24.40;67.30;;;;;;5061849;28;20461;-79
2022/09/16 07:24:13;;;;;;;3.90;3.40;;;24.40;67.30;;;;;;5067967;28;20481;-77
2022/09/16 07:26:44;;;;;;;3.63;3.33;;;24.40;67.30;;;;;;5070845;28;20797;-78
2022/09/16 07:29:14;;;;;;;3.87;3.57;;;24.40;67.40;;;;;;5070497;28;20445;-78
2022/09/16 07:31:42;;;;;;;5.03;4.37;;;24.50;67.40;;;;;;5064360;28;20440;-77
2022/09/16 07:34:11;;;;;;;4.17;3.70;;;24.50;67.30;;;;;;5070396;28;20445;-77
2022/09/16 07:36:41;;;;;;;5.90;3.63;;;24.50;67.30;;;;;;5071045;28;20445;-76
2022/09/16 07:39:11;;;;;;;4.13;3.77;;;24.60;67.20;;;;;;5072645;28;20446;-78
2022/09/16 07:41:41;;;;;;;7.63;4.27;;;24.60;67.20;;;;;;5071992;28;20499;-77
2022/09/16 07:44:13;;;;;;;4.10;3.57;;;24.60;67.20;;;;;;5072554;28;20451;-77
2022/09/16 07:46:41;;;;;;;4.07;3.30;;;24.60;67.20;;;;;;5067786;28;20450;-78
2022/09/16 07:49:13;;;;;;;6.57;3.63;;;24.60;67.20;;;;;;5072381;28;20460;-75
2022/09/16 07:51:42;;;;;;;3.90;3.20;;;24.60;67.10;;;;;;5073632;28;20920;-78
2022/09/16 07:54:15;;;;;;;4.47;3.77;;;24.70;67.20;;;;;;5065444;28;20454;-76
2022/09/16 07:56:44;;;;;;;6.33;4.10;;;24.70;67.20;;;;;;5065069;28;20446;-75
2022/09/16 07:59:16;;;;;;;3.90;3.50;;;24.70;67.10;;;;;;5064958;28;20919;-77
2022/09/16 08:01:47;;;;;;;4.80;3.67;;;24.70;67.10;;;;;;5060918;28;20477;-79
2022/09/16 08:04:16;;;;;;;3.90;3.27;;;24.70;67.10;;;;;;5069122;28;20461;-79
2022/09/16 08:06:44;;;;;;;3.80;3.50;;;24.70;67.10;;;;;;5070161;28;20964;-79
2022/09/16 08:09:13;;;;;;;3.90;3.47;;;24.70;67.10;;;;;;5064395;28;20440;-80
2022/09/16 08:12:04;;;;;;;4.23;3.83;;;24.70;67.10;;;;;;5071659;28;20478;-80
2022/09/16 08:14:34;;;;;;;4.50;3.97;;;24.70;67.00;;;;;;5068200;28;20900;-80
2022/09/16 08:17:02;;;;;;;6.13;3.70;;;24.80;67.00;;;;;;5070035;28;20476;-76
2022/09/16 08:19:30;;;;;;;5.97;3.77;;;24.70;67.00;;;;;;5074131;28;20467;-77
2022/09/16 08:21:59;;;;;;;5.90;3.40;;;24.80;67.10;;;;;;5066357;28;20919;-79
2022/09/16 08:24:27;;;;;;;5.00;4.50;;;24.80;67.00;;;;;;5066434;28;20849;-79
2022/09/16 08:26:55;;;;;;;4.03;3.50;;;24.80;67.00;;;;;;5060393;28;20473;-80
2022/09/16 08:29:28;;;;;;;4.17;3.87;;;24.80;67.00;;;;;;5069062;28;20800;-79
2022/09/16 08:31:58;;;;;;;4.37;3.37;;;24.80;66.90;;;;;;5068247;28;20460;-79
2022/09/16 08:34:26;;;;;;;4.40;3.30;;;24.80;67.00;;;;;;5069003;28;20455;-83
2022/09/16 08:36:54;;;;;;;3.77;3.43;;;24.80;66.90;;;;;;5070754;28;20446;-82
2022/09/16 08:39:22;;;;;;;4.30;3.47;;;24.90;66.80;;;;;;5071946;28;20778;-82
2022/09/16 08:42:02;;;;;;;4.00;3.60;;;24.90;66.80;;;;;;5072503;28;20539;-81
2022/09/16 08:44:38;;;;;;;3.90;3.60;;;24.80;66.90;;;;;;5071625;28;20478;-84
2022/09/16 08:47:22;;;;;;;4.10;3.50;;;24.80;66.90;;;;;;5071471;28;21060;-85
2022/09/16 08:49:52;;;;;;;3.53;3.13;;;24.80;66.90;;;;;;5071515;28;20471;-87
2022/09/16 08:52:30;;;;;;;3.63;3.33;;;24.80;66.80;;;;;;5071581;28;20444;-79
2022/09/16 08:55:02;;;;;;;3.10;2.90;;;24.80;66.90;;;;;;5067800;28;20439;-78
2022/09/16 08:57:38;;;;;;;3.80;3.50;;;24.80;66.90;;;;;;5070764;28;20440;-74
2022/09/16 09:00:13;;;;;;;3.57;3.27;;;24.80;66.90;;;;;;5071815;28;20558;-79
2022/09/16 09:02:50;;;;;;;3.60;3.30;;;24.80;66.60;;;;;;5071806;28;20787;-77
2022/09/16 09:05:27;;;;;;;4.50;3.93;;;24.80;66.50;;;;;;5071704;28;20468;-79
2022/09/16 09:08:11;;;;;;;4.97;3.40;;;24.80;66.40;;;;;;5073593;28;20528;-78
2022/09/16 09:10:47;;;;;;;3.13;2.70;;;24.80;66.30;;;;;;5070921;28;20481;-79
2022/09/16 09:13:33;;;;;;;4.20;2.87;;;24.80;66.20;;;;;;5053034;28;20436;-79
2022/09/16 09:16:10;;;;;;;3.83;3.00;;;24.70;66.20;;;;;;5056487;28;20957;-79
2022/09/16 09:18:50;;;;;;;3.10;2.80;;;24.70;66.20;;;;;;5069438;28;20458;-79
2022/09/16 09:21:26;;;;;;;2.77;2.53;;;24.70;66.20;;;;;;5071796;28;20452;-78
2022/09/16 09:24:17;;;;;;;3.70;3.03;;;24.70;66.20;;;;;;5065054;28;20446;-78
2022/09/16 09:26:49;;;;;;;3.63;3.33;;;24.60;66.10;;;;;;5071759;28;20472;-77
2022/09/16 09:29:42;;;;;;;3.87;3.20;;;24.60;66.10;;;;;;5070710;28;20436;-79
2022/09/16 09:32:21;;;;;;;3.17;2.63;;;24.60;66.10;;;;;;5072304;28;20445;-78
2022/09/16 09:35:15;;;;;;;3.07;2.87;;;24.60;66.10;;;;;;5070069;28;20448;-79
2022/09/16 09:38:07;;;;;;;2.90;2.60;;;24.60;66.10;;;;;;5064193;28;20463;-76
2022/09/16 09:40:40;;;;;;;3.27;2.97;;;24.60;66.00;;;;;;5066011;28;21215;-79
2022/09/16 09:43:13;;;;;;;3.40;3.10;;;24.60;66.00;;;;;;5069051;28;20455;-78
2022/09/16 09:45:47;;;;;;;2.67;2.47;;;24.60;66.00;;;;;;5067395;28;20583;-79
2022/09/16 09:48:20;;;;;;;3.03;2.73;;;24.50;66.00;;;;;;5071394;28;20917;-78
2022/09/16 09:50:52;;;;;;;2.33;2.23;;;24.50;66.00;;;;;;5071238;28;20525;-79
2022/09/16 09:53:25;;;;;;;3.23;2.90;;;24.50;66.00;;;;;;5064848;28;20463;-79
2022/09/16 09:56:00;;;;;;;2.93;2.80;;;24.50;66.00;;;;;;5063887;28;20451;-79
2022/09/16 09:58:34;;;;;;;2.17;2.07;;;24.50;66.00;;;;;;5045073;28;20549;-78
2022/09/16 10:01:02;;;;;;;2.63;2.43;;;24.50;66.00;;;;;;5062595;28;20457;-79
2022/09/16 10:03:31;;;;;;;2.53;2.33;;;24.50;66.00;;;;;;5062899;28;20462;-79
2022/09/16 10:06:00;;;;;;;2.50;2.30;;;24.50;66.10;;;;;;5065794;28;20801;-78
2022/09/16 10:08:32;;;;;;;2.40;2.20;;;24.50;66.00;;;;;;5064819;28;20751;-77
2022/09/16 10:11:02;;;;;;;3.13;2.70;;;24.40;66.00;;;;;;5065597;28;20486;-77
2022/09/16 10:13:31;;;;;;;2.60;2.40;;;24.40;66.10;;;;;;5068839;28;20447;-79
2022/09/16 10:16:13;;;;;;;2.53;2.30;;;24.40;66.00;;;;;;5062926;28;20480;-71
2022/09/16 10:18:44;;;;;;;2.53;2.33;;;24.40;66.00;;;;;;5064975;28;20449;-70
2022/09/16 10:21:16;;;;;;;2.33;2.23;;;24.40;66.20;;;;;;5065395;28;20479;-71
2022/09/16 10:23:54;;;;;;;2.90;2.63;;;24.40;66.20;;;;;;5071225;28;20462;-69
2022/09/16 10:26:24;;;;;;;3.03;2.70;;;24.40;66.10;;;;;;5066903;28;20466;-70
2022/09/16 10:28:59;;;;;;;4.50;2.33;;;24.40;65.90;;;;;;5063835;28;20442;-70
2022/09/16 10:31:32;;;;;;;3.13;2.10;;;24.40;66.00;;;;;;5052169;28;20947;-71
2022/09/16 10:34:03;;;;;;;2.37;2.20;;;24.40;65.90;;;;;;5062978;28;20499;-71
2022/09/16 10:36:35;;;;;;;2.50;2.30;;;24.50;65.80;;;;;;5051697;28;20564;-70
2022/09/16 10:39:04;;;;;;;2.33;2.00;;;24.50;65.40;;;;;;5062345;28;21342;-69
2022/09/16 10:41:40;;;;;;;4.60;2.70;;;24.50;65.40;;;;;;5062604;28;20449;-69
2022/09/16 10:44:15;;;;;;;2.13;1.70;;;24.50;65.60;;;;;;5067954;28;20467;-69
2022/09/16 10:46:52;;;;;;;5.23;2.57;;;24.50;65.60;;;;;;5070768;28;20824;-69
2022/09/16 10:49:26;;;;;;;1.73;1.60;;;24.50;65.60;;;;;;5069082;28;20989;-69
2022/09/16 10:51:55;;;;;;;2.30;1.80;;;24.60;65.60;;;;;;5073260;28;20456;-69
2022/09/16 10:54:27;;;;;;;1.83;1.73;;;24.60;65.40;;;;;;5064034;28;20785;-71
2022/09/16 10:56:55;;;;;;;3.33;2.23;;;24.60;65.40;;;;;;5071413;28;20456;-69
2022/09/16 10:59:23;;;;;;;2.70;1.70;;;24.60;65.30;;;;;;5069596;28;20924;-70
2022/09/16 11:01:58;;;;;;;2.17;1.97;;;24.60;65.30;;;;;;5069642;28;20456;-70
2022/09/16 11:04:49;;;;;;;1.97;1.83;;;24.60;65.20;;;;;;5068585;28;20438;-70
2022/09/16 11:07:32;;;;;;;3.27;1.87;;;24.70;65.10;;;;;;5060930;28;20476;-70
2022/09/16 11:10:10;;;;;;;2.03;1.80;;;24.70;65.20;;;;;;5075627;28;20813;-70
2022/09/16 11:12:58;;;;;;;2.00;1.77;;;24.70;65.00;;;;;;5070861;28;20488;-70
2022/09/16 11:15:38;;;;;;;1.80;1.70;;;24.70;64.80;;;;;;5073131;28;20476;-70
2022/09/16 11:18:36;;;;;;;2.53;1.80;;;24.70;64.60;;;;;;5073578;28;20482;-70
2022/09/16 11:21:27;;;;;;;2.67;2.10;;;24.70;64.40;;;;;;5072496;28;20484;-70
2022/09/16 11:24:23;;;;;;;2.23;1.47;;;24.70;64.30;;;;;;5069219;28;20453;-70
2022/09/16 11:27:02;;;;;;;2.40;1.80;;;24.70;64.10;;;;;;5070003;28;20473;-70
2022/09/16 11:29:50;;;;;;;1.77;1.67;;;24.70;64.10;;;;;;5067983;28;20548;-70
2022/09/16 11:32:28;;;;;;;2.53;1.90;;;24.60;63.90;;;;;;5073444;28;20438;-71
2022/09/16 11:35:34;;;;;;;2.40;2.20;;;24.60;63.90;;;;;;5067393;28;20469;-71
2022/09/16 11:38:11;;;;;;;2.93;2.53;;;24.60;63.80;;;;;;5058533;28;20451;-70
2022/09/16 11:40:46;;;;;;;3.50;3.20;;;24.60;63.80;;;;;;5068202;28;20468;-70
2022/09/16 11:44:04;;;;;;;3.40;3.10;;;24.60;63.80;;;;;;5068233;28;20517;-70
2022/09/16 11:46:44;;;;;;;2.70;2.50;;;24.60;63.80;;;;;;4993731;28;20559;-70
2022/09/16 11:49:29;;;;;;;2.83;2.63;;;24.60;63.70;;;;;;4988502;28;20463;-71
2022/09/16 11:52:19;;;;;;;5.50;3.30;;;24.50;63.80;;;;;;5042204;28;20459;-70
2022/09/16 11:55:06;;;;;;;4.20;3.10;;;24.50;64.00;;;;;;5068486;28;20457;-71
2022/09/16 11:57:39;;;;;;;3.57;3.27;;;24.50;63.90;;;;;;5071540;28;20440;-71
2022/09/16 12:00:15;;;;;;;5.40;2.90;;;24.50;64.10;;;;;;5070115;28;20455;-71
2022/09/16 12:02:52;;;;;;;3.80;3.30;;;24.50;64.10;;;;;;5069298;28;20447;-71
2022/09/16 12:05:23;;;;;;;3.40;2.80;;;24.50;64.20;;;;;;5069332;28;20444;-75
2022/09/16 12:07:57;;;;;;;5.27;3.33;;;24.50;64.10;;;;;;5054358;28;20468;-77
2022/09/16 12:10:28;;;;;;;4.50;3.50;;;24.60;64.30;;;;;;5067228;28;20460;-80
2022/09/16 12:13:07;;;;;;;3.67;3.27;;;24.60;64.40;;;;;;5064143;28;20450;-78
2022/09/16 12:15:40;;;;;;;3.30;3.00;;;24.60;64.50;;;;;;5059408;28;20484;-76
2022/09/16 12:18:13;;;;;;;3.57;2.90;;;24.70;64.60;;;;;;5063732;28;20443;-80
2022/09/16 12:20:45;;;;;;;3.13;2.83;;;24.70;64.70;;;;;;5063711;28;20475;-80
2022/09/16 12:23:18;;;;;;;3.83;3.20;;;24.70;64.70;;;;;;5066596;28;20445;-77
2022/09/16 12:26:01;;;;;;;3.80;3.17;;;24.80;64.80;;;;;;5066930;28;20909;-77
2022/09/16 12:28:36;;;;;;;3.17;2.87;;;24.80;64.80;;;;;;5062141;28;20469;-77
2022/09/16 12:31:13;;;;;;;7.33;3.30;;;24.90;64.90;;;;;;5068495;28;20971;-79
2022/09/16 12:33:50;;;;;;;2.97;2.67;;;24.90;64.90;;;;;;5065229;28;20461;-76
2022/09/16 12:36:24;;;;;;;3.10;2.80;;;24.90;65.00;;;;;;5072960;28;20448;-79
2022/09/16 12:38:52;;;;;;;5.73;2.97;;;24.90;65.10;;;;;;5059145;28;20460;-76
2022/09/16 12:41:40;;;;;;;2.97;2.67;;;24.90;65.20;;;;;;5072988;28;20919;-78
2022/09/16 12:44:34;;;;;;;3.83;2.80;;;24.90;65.40;;;;;;5070745;28;20792;-78
2022/09/16 12:47:25;;;;;;;3.20;2.93;;;24.90;65.60;;;;;;5069362;28;20441;-79
2022/09/16 12:50:19;;;;;;;3.23;2.93;;;24.90;65.60;;;;;;5069727;28;20472;-78
2022/09/16 12:53:24;;;;;;;2.60;2.40;;;24.90;65.80;;;;;;5065738;28;20819;-79
2022/09/16 12:56:07;;;;;;;2.87;2.67;;;24.80;65.80;;;;;;5055990;28;20464;-81
2022/09/16 12:59:05;;;;;;;3.10;2.70;;;24.90;65.80;;;;;;5070162;28;20457;-79
2022/09/16 13:01:39;;;;;;;2.77;2.57;;;24.90;65.90;;;;;;5070674;28;21716;-80
2022/09/16 13:04:17;;;;;;;6.43;3.13;;;24.90;66.00;;;;;;5064975;28;20489;-79
2022/09/16 13:06:48;;;;;;;3.60;2.50;;;24.90;66.10;;;;;;5066831;28;20483;-78
2022/09/16 13:09:22;;;;;;;2.90;2.67;;;24.90;66.10;;;;;;5063878;28;20470;-77
2022/09/16 13:11:57;;;;;;;2.60;2.20;;;24.90;66.30;;;;;;5063195;28;20482;-77
2022/09/16 13:14:47;;;;;;;3.03;2.83;;;24.90;66.20;;;;;;5064447;28;21013;-78
2022/09/16 13:17:28;;;;;;;4.30;3.30;;;25.00;66.40;;;;;;5067842;28;20442;-69
2022/09/16 13:20:00;;;;;;;2.90;2.63;;;25.00;66.50;;;;;;5061481;28;20453;-78
2022/09/16 13:22:32;;;;;;;3.30;2.60;;;25.00;66.00;;;;;;5051659;28;20468;-80
2022/09/16 13:25:09;;;;;;;3.27;2.97;;;25.10;65.90;;;;;;5071909;28;20445;-80